createdAt,value
2019-05-23T00:00:29.403Z,12.30
2019-05-23T00:02:59.034Z,12.30
2019-05-23T00:05:38.634Z,12.30
2019-05-23T00:08:12.471Z,12.30
2019-05-23T00:10:45.774Z,12.30
2019-05-23T00:13:17.380Z,12.30
2019-05-23T00:15:49.692Z,12.30
2019-05-23T00:18:21.295Z,12.30
2019-05-23T00:20:51.980Z,12.20
2019-05-23T00:23:22.277Z,12.20
2019-05-23T00:25:52.728Z,12.20
2019-05-23T00:28:22.477Z,12.30
2019-05-23T00:30:55.878Z,12.20
2019-05-23T00:33:35.171Z,12.20
2019-05-23T00:36:05.266Z,12.20
2019-05-23T00:38:36.390Z,12.20
2019-05-23T00:41:05.545Z,12.10
2019-05-23T00:43:36.325Z,12.10
2019-05-23T00:46:05.921Z,12.10
2019-05-23T00:48:36.425Z,12.10
2019-05-23T00:51:06.573Z,12.20
2019-05-23T00:53:37.215Z,12.20
2019-05-23T00:56:09.223Z,12.10
2019-05-23T00:58:38.799Z,12.00
2019-05-23T01:01:09.096Z,12.10
2019-05-23T01:03:39.041Z,12.20
2019-05-23T01:06:09.262Z,12.20
2019-05-23T01:08:40.534Z,12.00
2019-05-23T01:11:10.680Z,12.00
2019-05-23T01:13:41.441Z,12.00
2019-05-23T01:16:12.111Z,12.00
2019-05-23T01:18:41.557Z,12.00
2019-05-23T01:21:28.918Z,11.90
2019-05-23T01:24:04.405Z,11.90
2019-05-23T01:26:34.479Z,12.00
2019-05-23T01:29:05.024Z,12.00
2019-05-23T01:31:38.088Z,12.00
2019-05-23T01:34:09.266Z,12.00
2019-05-23T01:36:39.630Z,11.90
2019-05-23T01:39:11.595Z,11.90
2019-05-23T01:41:42.471Z,11.90
2019-05-23T01:44:14.130Z,11.90
2019-05-23T01:46:43.960Z,12.00
2019-05-23T01:49:15.465Z,11.90
2019-05-23T01:51:44.652Z,11.90
2019-05-23T01:54:13.904Z,11.80
2019-05-23T01:56:44.693Z,11.90
2019-05-23T01:59:14.026Z,11.80
2019-05-23T02:01:43.249Z,11.90
2019-05-23T02:04:12.407Z,11.90
2019-05-23T02:06:41.684Z,11.80
2019-05-23T02:09:12.233Z,11.70
2019-05-23T02:11:42.215Z,11.60
2019-05-23T02:14:12.193Z,11.60
2019-05-23T02:16:42.526Z,11.60
2019-05-23T02:19:13.797Z,11.50
2019-05-23T02:21:44.671Z,11.60
2019-05-23T02:24:15.161Z,11.50
2019-05-23T02:26:44.459Z,11.50
2019-05-23T02:29:15.487Z,11.40
2019-05-23T02:34:15.519Z,11.40
2019-05-23T02:36:45.705Z,11.50
2019-05-23T02:39:32.961Z,11.40
2019-05-23T02:42:11.863Z,11.30
2019-05-23T02:44:41.140Z,11.20
2019-05-23T02:47:29.401Z,11.10
2019-05-23T02:49:59.885Z,11.10
2019-05-23T02:52:44.392Z,11.10
2019-05-23T02:55:22.156Z,11.10
2019-05-23T02:57:52.696Z,11.10
2019-05-23T03:00:59.881Z,11.00
2019-05-23T03:03:32.415Z,11.00
2019-05-23T03:06:04.646Z,11.10
2019-05-23T03:08:35.593Z,11.10
2019-05-23T03:11:17.372Z,11.10
2019-05-23T03:13:48.196Z,11.00
2019-05-23T03:16:22.036Z,11.00
2019-05-23T03:18:57.951Z,11.00
2019-05-23T03:21:27.361Z,11.10
2019-05-23T03:23:58.030Z,11.10
2019-05-23T03:27:00.166Z,11.00
2019-05-23T03:29:31.520Z,10.90
2019-05-23T03:32:05.967Z,10.80
2019-05-23T03:34:36.748Z,10.90
2019-05-23T03:37:06.998Z,10.80
2019-05-23T03:39:36.445Z,10.80
2019-05-23T03:42:07.320Z,10.90
2019-05-23T03:44:40.719Z,10.80
2019-05-23T03:47:14.638Z,10.70
2019-05-23T03:49:45.412Z,10.50
2019-05-23T03:52:16.545Z,10.60
2019-05-23T03:54:49.261Z,10.50
2019-05-23T03:57:25.295Z,10.60
2019-05-23T03:59:52.467Z,10.70
2019-05-23T04:02:25.827Z,10.50
2019-05-23T04:04:56.677Z,10.40
2019-05-23T04:07:26.398Z,10.40
2019-05-23T04:09:56.293Z,10.40
2019-05-23T04:12:25.729Z,10.40
2019-05-23T04:14:55.439Z,10.30
2019-05-23T04:17:24.683Z,10.30
2019-05-23T04:19:53.859Z,10.30
2019-05-23T04:22:23.906Z,10.30
2019-05-23T04:24:53.401Z,10.30
2019-05-23T04:27:22.710Z,10.30
2019-05-23T04:29:51.995Z,10.30
2019-05-23T04:32:21.650Z,10.30
2019-05-23T04:34:51.187Z,10.30
2019-05-23T04:37:20.525Z,10.30
2019-05-23T04:39:50.337Z,10.30
2019-05-23T04:42:19.771Z,10.30
2019-05-23T04:44:48.923Z,10.30
2019-05-23T04:47:19.831Z,10.20
2019-05-23T04:49:49.442Z,10.30
2019-05-23T04:52:18.559Z,10.30
2019-05-23T04:54:48.000Z,10.30
2019-05-23T04:57:17.955Z,10.30
2019-05-23T04:59:48.165Z,10.20
2019-05-23T05:02:26.302Z,10.10
2019-05-23T05:04:49.733Z,10.10
2019-05-23T05:07:19.122Z,10.20
2019-05-23T05:09:48.422Z,10.30
2019-05-23T05:12:18.381Z,10.40
2019-05-23T05:14:47.726Z,10.50
2019-05-23T05:17:17.565Z,10.60
2019-05-23T05:19:47.096Z,10.60
2019-05-23T05:22:16.535Z,10.70
2019-05-23T05:24:46.008Z,10.80
2019-05-23T05:27:15.192Z,10.90
2019-05-23T05:29:44.485Z,10.90
2019-05-23T05:32:17.358Z,11.00
2019-05-23T05:34:46.467Z,11.10
2019-05-23T05:37:15.608Z,11.10
2019-05-23T05:39:45.614Z,11.20
2019-05-23T05:42:15.030Z,11.30
2019-05-23T05:44:45.182Z,11.60
2019-05-23T05:47:14.444Z,11.70
2019-05-23T05:49:43.556Z,11.80
2019-05-23T05:52:12.732Z,11.70
2019-05-23T05:54:44.784Z,12.00
2019-05-23T05:57:14.203Z,12.10
2019-05-23T05:59:43.333Z,12.00
2019-05-23T06:02:13.982Z,12.10
2019-05-23T06:04:43.748Z,12.20
2019-05-23T06:07:31.883Z,12.40
2019-05-23T06:10:02.552Z,12.70
2019-05-23T06:12:32.373Z,12.80
2019-05-23T06:15:02.861Z,12.80
2019-05-23T06:17:33.607Z,12.70
2019-05-23T06:20:02.874Z,12.80
2019-05-23T06:22:33.742Z,12.60
2019-05-23T06:25:04.794Z,12.50
2019-05-23T06:27:34.578Z,12.40
2019-05-23T06:30:11.941Z,12.70
2019-05-23T06:32:41.528Z,12.60
2019-05-23T06:35:11.010Z,12.50
2019-05-23T06:37:40.654Z,12.80
2019-05-23T06:40:10.621Z,12.80
2019-05-23T06:42:41.330Z,12.80
2019-05-23T06:45:11.291Z,12.80
2019-05-23T06:47:41.363Z,12.70
2019-05-23T06:50:16.162Z,12.70
2019-05-23T06:52:45.391Z,12.70
2019-05-23T06:55:14.759Z,12.80
2019-05-23T06:57:44.353Z,12.90
2019-05-23T07:00:15.020Z,13.00
2019-05-23T07:02:45.065Z,13.00
2019-05-23T07:05:18.148Z,13.00
2019-05-23T07:07:47.675Z,13.00
2019-05-23T07:10:17.467Z,13.30
2019-05-23T07:12:46.650Z,13.20
2019-05-23T07:15:19.926Z,13.70
2019-05-23T07:17:49.023Z,13.80
2019-05-23T07:20:19.062Z,14.00
2019-05-23T07:22:48.491Z,14.00
2019-05-23T07:25:17.799Z,14.40
2019-05-23T07:27:47.292Z,14.50
2019-05-23T07:30:24.937Z,14.70
2019-05-23T07:32:54.424Z,14.40
2019-05-23T07:35:26.222Z,14.80
2019-05-23T07:37:55.770Z,15.10
2019-05-23T07:40:26.855Z,15.30
2019-05-23T07:43:02.934Z,14.90
2019-05-23T07:45:46.834Z,14.80
2019-05-23T07:48:16.307Z,14.90
2019-05-23T07:50:46.008Z,15.10
2019-05-23T08:28:14.592Z,15.40
2019-05-23T08:30:43.774Z,17.20
2019-05-23T08:45:39.229Z,17.30
2019-05-23T08:48:08.558Z,18.60
2019-05-23T08:50:38.093Z,18.90
2019-05-23T08:53:07.779Z,18.70
2019-05-23T08:55:38.299Z,19.70
2019-05-23T08:58:09.367Z,19.60
2019-05-23T09:00:39.815Z,20.10
2019-05-23T09:03:10.859Z,19.60
2019-05-23T09:05:40.510Z,20.60
2019-05-23T09:08:11.301Z,20.20
2019-05-23T09:10:46.767Z,20.90
2019-05-23T09:13:16.402Z,21.30
2019-05-23T09:15:45.489Z,20.90
2019-05-23T09:18:14.978Z,20.80
2019-05-23T09:20:44.708Z,21.30
2019-05-23T09:23:14.622Z,22.60
2019-05-23T09:25:44.046Z,23.00
2019-05-23T09:28:14.308Z,21.80
2019-05-23T09:30:43.664Z,22.30
2019-05-23T09:33:24.248Z,24.50
2019-05-23T09:36:02.180Z,23.00
2019-05-23T09:38:33.553Z,22.20
2019-05-23T09:41:02.752Z,22.70
2019-05-23T09:43:32.040Z,22.50
2019-05-23T09:46:01.273Z,24.30
2019-05-23T09:48:31.085Z,23.90
2019-05-23T09:51:00.258Z,24.20
2019-05-23T09:53:29.505Z,23.40
2019-05-23T09:55:58.691Z,23.50
2019-05-23T09:58:28.021Z,23.00
2019-05-23T10:00:57.937Z,22.50
2019-05-23T10:03:27.539Z,23.30
2019-05-23T10:05:57.153Z,23.80
2019-05-23T10:08:26.420Z,23.90
2019-05-23T10:10:55.608Z,23.10
2019-05-23T10:13:38.492Z,24.20
2019-05-23T10:16:05.242Z,24.40
2019-05-23T10:18:37.321Z,25.10
2019-05-23T10:21:07.402Z,26.20
2019-05-23T10:23:36.637Z,24.40
2019-05-23T10:26:09.306Z,24.90
2019-05-23T10:28:38.716Z,25.40
2019-05-23T10:31:29.454Z,26.90
2019-05-23T10:34:05.486Z,25.80
2019-05-23T10:36:34.785Z,24.00
2019-05-23T10:39:06.041Z,23.50
2019-05-23T10:41:38.455Z,22.70
2019-05-23T10:44:07.749Z,22.80
2019-05-23T10:46:38.079Z,22.60
2019-05-23T10:49:10.495Z,23.30
2019-05-23T10:51:39.923Z,23.30
2019-05-23T11:36:59.482Z,23.00
2019-05-23T11:39:29.765Z,24.80
2019-05-23T11:41:58.827Z,24.90
2019-05-23T11:44:27.995Z,25.30
2019-05-23T11:47:19.573Z,25.40
2019-05-23T11:49:49.180Z,25.60
2019-05-23T11:52:18.771Z,25.00
2019-05-23T11:54:47.871Z,26.20
2019-05-23T11:57:20.467Z,25.80
2019-05-23T11:59:54.470Z,26.00
2019-05-23T12:02:32.124Z,25.90
2019-05-23T12:05:04.933Z,26.30
2019-05-23T12:07:36.581Z,27.00
2019-05-23T12:10:07.677Z,25.70
2019-05-23T12:12:37.290Z,24.60
2019-05-23T12:15:10.922Z,24.60
2019-05-23T12:17:40.509Z,24.90
2019-05-23T12:20:10.849Z,24.60
2019-05-23T12:22:41.050Z,23.50
2019-05-23T12:25:21.841Z,23.50
2019-05-23T12:53:02.430Z,22.80
2019-05-23T12:55:31.678Z,23.70
2019-05-23T12:58:00.845Z,24.00
2019-05-23T13:00:39.326Z,23.50
2019-05-23T13:03:08.664Z,24.00
2019-05-23T13:05:39.039Z,23.90
2019-05-23T13:08:09.177Z,25.30
2019-05-23T13:10:38.683Z,25.30
2019-05-23T13:13:08.054Z,27.10
2019-05-23T13:15:38.253Z,29.00
2019-05-23T13:18:07.673Z,28.40
2019-05-23T13:20:37.821Z,29.50
2019-05-23T13:23:07.880Z,29.10
2019-05-23T13:25:37.907Z,26.30
2019-05-23T13:28:07.186Z,25.20
2019-05-23T13:30:36.567Z,25.30
2019-05-23T13:33:05.815Z,26.10
2019-05-23T13:35:35.480Z,25.60
2019-05-23T13:38:04.678Z,25.90
2019-05-23T13:40:34.179Z,25.80
2019-05-23T13:43:09.179Z,25.60
2019-05-23T13:45:38.828Z,26.50
2019-05-23T13:48:08.093Z,26.40
2019-05-23T13:50:37.388Z,27.30
2019-05-23T13:53:10.423Z,28.00
2019-05-23T13:55:39.986Z,28.80
2019-05-23T13:58:09.335Z,29.00
2019-05-23T14:00:39.130Z,28.60
2019-05-23T14:03:09.092Z,28.10
2019-05-23T14:05:38.576Z,28.60
2019-05-23T14:08:12.811Z,29.20
2019-05-23T14:10:40.398Z,26.90
2019-05-23T14:13:09.542Z,25.30
2019-05-23T14:15:41.939Z,25.80
2019-05-23T14:18:12.656Z,25.40
2019-05-23T14:20:42.412Z,24.40
2019-05-23T14:23:21.243Z,23.50
2019-05-23T14:25:50.721Z,25.00
2019-05-23T14:28:23.963Z,26.10
2019-05-23T14:31:04.671Z,24.80
2019-05-23T14:33:51.784Z,25.00
2019-05-23T14:36:31.086Z,24.50
2019-05-23T14:38:59.025Z,24.60
2019-05-23T14:41:44.228Z,25.40
2019-05-23T14:44:02.831Z,26.00
2019-05-23T14:46:36.833Z,26.30
2019-05-23T14:49:11.384Z,26.70
2019-05-23T14:52:04.429Z,25.80
2019-05-23T14:55:03.012Z,24.10
2019-05-23T15:10:44.428Z,22.30
2019-05-23T15:14:19.831Z,22.50
2019-05-23T15:21:01.053Z,23.30
2019-05-23T15:24:43.664Z,22.80
2019-05-23T15:27:35.242Z,21.70
2019-05-23T15:30:11.400Z,22.00
2019-05-23T15:36:28.414Z,21.60
2019-05-23T15:42:34.748Z,21.70
2019-05-23T15:51:44.533Z,21.30
2019-05-23T15:57:29.586Z,21.30
2019-05-23T16:01:29.505Z,21.60
2019-05-23T16:04:26.991Z,21.90
2019-05-23T16:07:28.124Z,22.10
2019-05-23T16:09:55.262Z,22.00
2019-05-23T16:12:36.720Z,21.90
2019-05-23T16:15:09.374Z,21.40
2019-05-23T16:17:38.599Z,21.40
2019-05-23T16:20:23.556Z,21.20
2019-05-23T16:22:52.942Z,20.90
2019-05-23T16:25:22.530Z,21.00
2019-05-23T16:27:52.294Z,21.10
2019-05-23T16:30:21.554Z,21.10
2019-05-23T16:32:50.713Z,20.90
2019-05-23T16:35:20.114Z,20.90
2019-05-23T16:37:52.557Z,20.80
2019-05-23T16:40:21.810Z,20.90
2019-05-23T16:42:51.033Z,21.00
2019-05-23T16:45:20.507Z,21.00
2019-05-23T16:47:49.850Z,20.90
2019-05-23T16:50:55.392Z,20.90
2019-05-23T16:53:26.317Z,20.90
2019-05-23T16:56:01.661Z,20.80
2019-05-23T16:58:42.774Z,20.80
2019-05-23T17:01:34.444Z,20.90
2019-05-23T17:04:16.444Z,20.80
2019-05-23T17:06:57.883Z,20.70
2019-05-23T17:10:05.908Z,20.50
2019-05-23T17:12:35.114Z,20.20
2019-05-23T17:15:12.406Z,19.80
2019-05-23T17:18:02.815Z,19.80
2019-05-23T17:20:51.088Z,19.60
2019-05-23T17:23:54.514Z,19.70
2019-05-23T17:26:39.690Z,19.60
2019-05-23T17:29:16.308Z,19.60
2019-05-23T17:31:49.303Z,19.70
2019-05-23T17:34:18.568Z,19.80
2019-05-23T17:36:47.865Z,19.70
2019-05-23T17:39:19.108Z,19.70
2019-05-23T17:41:48.231Z,19.70
2019-05-23T17:44:17.473Z,19.60
2019-05-23T17:46:46.632Z,19.40
2019-05-23T17:49:16.417Z,19.30
2019-05-23T17:51:45.826Z,19.30
2019-05-23T17:54:15.364Z,19.20
2019-05-23T17:56:44.324Z,19.20
2019-05-23T17:59:13.661Z,19.10
2019-05-23T18:01:43.879Z,19.10
2019-05-23T18:04:13.971Z,19.10
2019-05-23T18:06:43.599Z,19.00
2019-05-23T18:09:13.461Z,19.00
2019-05-23T18:11:42.885Z,18.90
2019-05-23T18:14:12.241Z,18.90
2019-05-23T18:16:42.879Z,18.90
2019-05-23T18:19:13.386Z,18.80
2019-05-23T18:21:42.910Z,18.80
2019-05-23T18:24:13.330Z,18.70
2019-05-23T18:26:48.280Z,18.60
2019-05-23T18:29:17.547Z,18.60
2019-05-23T18:31:46.692Z,18.50
2019-05-23T18:34:16.658Z,18.50
2019-05-23T18:36:46.300Z,18.50
2019-05-23T18:39:17.243Z,18.40
2019-05-23T18:41:46.686Z,18.40
2019-05-23T18:44:16.990Z,18.30
2019-05-23T18:46:50.621Z,18.30
2019-05-23T18:49:24.903Z,18.30
2019-05-23T18:52:04.719Z,18.20
2019-05-23T18:54:46.295Z,18.10
2019-05-23T18:57:17.058Z,18.00
2019-05-23T18:59:46.138Z,18.00
2019-05-23T19:02:15.518Z,17.90
2019-05-23T19:04:45.075Z,17.90
2019-05-23T19:07:14.324Z,17.90
2019-05-23T19:09:43.859Z,17.80
2019-05-23T19:12:15.162Z,17.70
2019-05-23T19:14:44.294Z,17.70
2019-05-23T19:17:13.506Z,17.50
2019-05-23T19:19:43.369Z,17.60
2019-05-23T19:22:15.950Z,17.50
2019-05-23T19:24:45.573Z,17.50
2019-05-23T19:27:16.518Z,17.50
2019-05-23T19:29:46.015Z,17.50
2019-05-23T19:32:15.916Z,17.40
2019-05-23T19:34:45.417Z,17.40
2019-05-23T19:37:14.835Z,17.30
2019-05-23T19:39:44.652Z,17.30
2019-05-23T19:42:14.604Z,17.30
2019-05-23T19:44:43.687Z,17.30
2019-05-23T19:47:14.006Z,17.30
2019-05-23T19:49:43.154Z,17.20
2019-05-23T19:52:13.026Z,17.20
2019-05-23T19:54:42.708Z,17.20
2019-05-23T19:57:11.946Z,17.20
2019-05-23T19:59:41.579Z,17.10
2019-05-23T20:02:29.159Z,17.10
2019-05-23T20:05:04.042Z,17.10
2019-05-23T20:07:33.236Z,17.00
2019-05-23T20:10:03.198Z,17.00
2019-05-23T20:12:32.804Z,17.00
2019-05-23T20:15:01.890Z,16.90
2019-05-23T20:17:35.231Z,16.90
2019-05-23T20:20:04.672Z,16.90
2019-05-23T20:22:34.190Z,16.90
2019-05-23T20:25:06.882Z,16.90
2019-05-23T20:27:36.355Z,16.90
2019-05-23T20:30:07.723Z,16.80
2019-05-23T20:32:45.954Z,16.70
2019-05-23T20:35:15.725Z,16.70
2019-05-23T20:37:45.000Z,16.60
2019-05-23T20:40:14.542Z,16.60
2019-05-23T20:42:44.178Z,16.60
2019-05-23T20:45:13.546Z,16.50
2019-05-23T20:47:42.853Z,16.50
2019-05-23T20:50:12.052Z,16.50
2019-05-23T20:52:41.141Z,16.40
2019-05-23T20:55:10.879Z,16.40
2019-05-23T20:57:40.099Z,16.30
2019-05-23T21:00:11.703Z,16.20
2019-05-23T21:02:41.059Z,16.20
2019-05-23T21:05:16.705Z,16.20
2019-05-23T21:07:46.545Z,16.10
2019-05-23T21:10:30.902Z,16.10
2019-05-23T21:13:00.073Z,16.10
2019-05-23T21:15:32.422Z,16.00
2019-05-23T21:18:03.673Z,16.00
2019-05-23T21:20:37.197Z,15.90
2019-05-23T21:23:06.505Z,15.90
2019-05-23T21:25:36.988Z,15.90
2019-05-23T21:28:06.273Z,15.80
2019-05-23T21:30:35.688Z,15.80
2019-05-23T21:33:05.206Z,15.70
2019-05-23T21:35:34.441Z,15.60
2019-05-23T21:38:03.715Z,15.60
2019-05-23T21:40:45.515Z,15.60
2019-05-23T21:43:14.785Z,15.60
2019-05-23T21:45:44.520Z,15.60
2019-05-23T21:48:15.478Z,15.50
2019-05-23T21:50:45.090Z,15.50
2019-05-23T21:53:14.643Z,15.50
2019-05-23T21:55:44.760Z,15.40
2019-05-23T21:58:15.160Z,15.40
2019-05-23T22:01:29.043Z,15.40
2019-05-23T22:04:16.690Z,15.30
2019-05-23T22:06:50.376Z,15.30
2019-05-23T22:09:20.132Z,15.30
2019-05-23T22:11:50.063Z,15.20
2019-05-23T22:14:20.192Z,15.20
2019-05-23T22:16:49.844Z,15.10
2019-05-23T22:19:20.905Z,15.10
2019-05-23T22:21:50.158Z,15.10
2019-05-23T22:24:20.085Z,15.10
2019-05-23T22:26:52.385Z,15.10
2019-05-23T22:29:21.949Z,15.00
2019-05-23T22:31:51.052Z,15.00
2019-05-23T22:34:34.180Z,15.00
2019-05-23T22:37:05.352Z,14.90
2019-05-23T22:39:34.518Z,14.90
2019-05-23T22:42:05.928Z,14.90
2019-05-23T22:44:36.951Z,14.90
2019-05-23T22:47:06.348Z,14.80
2019-05-23T22:49:35.794Z,14.80
2019-05-23T22:52:05.535Z,14.90
2019-05-23T22:54:34.754Z,14.80
2019-05-23T22:57:05.018Z,14.70
2019-05-23T22:59:34.219Z,14.70
2019-05-23T23:02:05.008Z,14.70
2019-05-23T23:04:34.112Z,14.70
2019-05-23T23:07:03.717Z,14.60
2019-05-23T23:09:32.812Z,14.60
2019-05-23T23:12:02.396Z,14.50
2019-05-23T23:14:31.809Z,14.50
2019-05-23T23:17:02.234Z,14.50
2019-05-23T23:19:38.211Z,14.40
2019-05-23T23:22:11.160Z,14.40
2019-05-23T23:24:40.431Z,14.40
2019-05-23T23:27:09.745Z,14.40
2019-05-23T23:29:38.892Z,14.30
2019-05-23T23:32:08.743Z,14.30
2019-05-23T23:34:38.002Z,14.20
2019-05-23T23:37:07.267Z,14.20
2019-05-23T23:39:38.035Z,14.20
2019-05-23T23:43:03.432Z,14.20
2019-05-23T23:45:50.970Z,14.10
2019-05-23T23:48:41.514Z,14.10
2019-05-23T23:51:28.252Z,14.10
2019-05-23T23:54:15.131Z,14.20
2019-05-23T23:57:02.748Z,14.20
2019-05-23T23:59:30.976Z,14.20
